| time (UTC) | temp C | wind direction | speed KPH | gust KPH | rain 1hr cm | rain 24hr cm | rain mn cm | humidity % | barometer mb |
| 20260906094510 | 18 | 317 | 0.0 | 4.8 | 0.00 | 0.08 | 0.00 | 99 | 968.9 |
| 20260906093005 | 18 | 318 | 0.0 | 3.2 | 0.00 | 0.08 | 0.00 | 98 | 968.8 |
| 20260906091506 | 18 | 318 | 0.0 | 0.0 | 0.00 | 0.08 | 0.00 | 99 | 968.6 |
| 20260906090002 | 19 | 318 | 1.6 | 4.8 | 0.00 | 0.08 | 0.00 | 99 | 968.7 |
| 20260906084505 | 18 | 318 | 0.0 | 0.0 | 0.00 | 0.08 | 0.00 | 98 | 968.7 |
| 20260906083101 | 18 | 318 | 1.6 | 4.8 | 0.00 | 0.08 | 0.00 | 99 | 968.9 |
| 20260906081601 | 18 | 318 | 1.6 | 4.8 | 0.00 | 0.08 | 0.00 | 98 | 968.8 |
| 20260906080100 | 18 | 319 | 0.0 | 3.2 | 0.00 | 0.08 | 0.00 | 98 | 968.7 |
| 20260906074557 | 19 | 318 | 0.0 | 4.8 | 0.00 | 0.08 | 0.00 | 98 | 968.7 |
| 20260906073056 | 19 | 320 | 0.0 | 1.6 | 0.00 | 0.08 | 0.00 | 98 | 968.8 |
| 20260906071605 | 19 | 331 | 0.0 | 3.2 | 0.00 | 0.08 | 0.00 | 98 | 968.8 |
| 20260906070053 | 19 | 331 | 0.0 | 0.0 | 0.00 | 0.08 | 0.00 | 98 | 968.8 |
| 20260906064551 | 20 | 331 | 0.0 | 1.6 | 0.00 | 0.08 | 0.00 | 97 | 968.9 |
| 20260906063050 | 20 | 331 | 0.0 | 0.0 | 0.00 | 0.08 | 0.00 | 97 | 969.1 |
| 20260906061549 | 20 | 331 | 0.0 | 0.0 | 0.00 | 0.08 | 0.00 | 96 | 969.0 |
| 20260906060047 | 20 | 331 | 0.0 | 4.8 | 0.00 | 0.08 | 0.00 | 97 | 969.1 |
| 20260906054550 | 20 | 80 | 0.0 | 3.2 | 0.00 | 0.08 | 0.00 | 97 | 969.3 |
| 20260906053045 | 20 | 80 | 0.0 | 6.4 | 0.00 | 0.08 | 0.00 | 97 | 969.3 |
| 20260906051550 | 20 | 324 | 0.0 | 3.2 | 0.00 | 0.08 | 0.00 | 96 | 969.4 |
| 20260906050106 | 20 | 324 | 0.0 | 3.2 | 0.00 | 0.08 | 0.00 | 96 | 969.3 |
| 20260906044540 | 21 | 338 | 0.0 | 1.6 | 0.00 | 0.08 | 0.00 | 96 | 969.3 |
| 20260906043040 | 21 | 338 | 0.0 | 0.0 | 0.00 | 0.08 | 0.00 | 96 | 969.2 |
| 20260906041538 | 21 | 338 | 0.0 | 0.0 | 0.00 | 0.08 | 0.00 | 95 | 969.2 |
| 20260906040038 | 21 | 338 | 0.0 | 3.2 | 0.00 | 0.08 | 0.00 | 95 | 969.5 |
| 20260906034541 | 21 | 338 | 0.0 | 0.0 | 0.00 | 0.08 | 0.08 | 94 | 969.4 |
| 20260906033033 | 21 | 338 | 0.0 | 3.2 | 0.00 | 0.08 | 0.08 | 94 | 969.4 |
| 20260906031539 | 21 | 338 | 0.0 | 0.0 | 0.00 | 0.08 | 0.08 | 93 | 969.6 |
| 20260906030033 | 22 | 338 | 0.0 | 0.0 | 0.00 | 0.08 | 0.08 | 92 | 969.7 |
| 20260906024531 | 22 | 338 | 0.0 | 0.0 | 0.00 | 0.08 | 0.08 | 92 | 969.6 |
| 20260906023035 | 22 | 338 | 0.0 | 0.0 | 0.00 | 0.08 | 0.08 | 91 | 969.4 |
| 20260906021530 | 22 | 338 | 0.0 | 1.6 | 0.00 | 0.08 | 0.08 | 91 | 969.5 |
| 20260906020031 | 22 | 338 | 0.0 | 0.0 | 0.00 | 0.08 | 0.08 | 90 | 969.4 |
| 20260906014533 | 23 | 338 | 0.0 | 4.8 | 0.00 | 0.08 | 0.08 | 88 | 969.3 |
| 20260906013030 | 23 | 338 | 0.0 | 3.2 | 0.00 | 0.08 | 0.08 | 87 | 969.2 |
| 20260906011529 | 24 | 46 | 0.0 | 8.0 | 0.00 | 0.08 | 0.08 | 84 | 968.9 |
| 20260906010029 | 25 | 288 | 3.2 | 8.0 | 0.00 | 0.08 | 0.08 | 83 | 968.9 |
| 20260906004528 | 23 | 318 | 0.0 | 3.2 | 0.00 | 0.08 | 0.08 | 85 | 968.7 |
| 20260906003028 | 24 | 318 | 0.0 | 4.8 | 0.00 | 0.08 | 0.08 | 84 | 968.3 |
| 20260906001527 | 24 | 318 | 0.0 | 0.0 | 0.00 | 0.08 | 0.08 | 83 | 968.2 |
| 20260906000030 | 25 | 318 | 0.0 | 1.6 | 0.00 | 0.08 | 0.08 | 80 | 968.1 |
| 20260905234526 | 26 | 318 | 0.0 | 3.2 | 0.00 | 0.08 | 0.08 | 76 | 968.0 |
| 20260905233028 | 27 | 318 | 1.6 | 6.4 | 0.00 | 0.08 | 0.08 | 73 | 968.0 |
| 20260905231525 | 27 | 324 | 0.0 | 4.8 | 0.00 | 0.08 | 0.08 | 73 | 967.8 |
| 20260905230024 | 28 | 300 | 1.6 | 4.8 | 0.00 | 0.08 | 0.08 | 71 | 968.1 |
| 20260905224525 | 28 | 277 | 1.6 | 6.4 | 0.00 | 0.08 | 0.08 | 69 | 967.9 |
| 20260905223023 | 29 | 317 | 4.8 | 11.3 | 0.00 | 0.08 | 0.08 | 66 | 968.0 |
| 20260905221523 | 29 | 284 | 6.4 | 12.9 | 0.00 | 0.08 | 0.08 | 66 | 968.0 |
| 20260905220027 | 30 | 313 | 1.6 | 9.7 | 0.00 | 0.08 | 0.08 | 66 | 968.1 |
| 20260905214521 | 29 | 298 | 6.4 | 11.3 | 0.00 | 0.08 | 0.08 | 66 | 968.2 |
| 20260905213022 | 29 | 342 | 11.3 | 17.7 | 0.00 | 0.08 | 0.08 | 64 | 968.2 |
| 20260905211520 | 29 | 302 | 4.8 | 16.1 | 0.00 | 0.08 | 0.08 | 64 | 968.1 |
| 20260905210019 | 30 | 276 | 6.4 | 14.5 | 0.00 | 0.08 | 0.08 | 63 | 968.1 |
| 20260905204520 | 29 | 322 | 3.2 | 12.9 | 0.00 | 0.08 | 0.08 | 64 | 968.2 |
| 20260905203019 | 28 | 11 | 6.4 | 12.9 | 0.00 | 0.08 | 0.08 | 66 | 968.4 |
| 20260905201524 | 28 | 286 | 6.4 | 14.5 | 0.00 | 0.08 | 0.08 | 65 | 968.3 |
| 20260905200029 | 28 | 278 | 1.6 | 12.9 | 0.00 | 0.08 | 0.08 | 68 | 968.0 |
| 20260905194518 | 27 | 298 | 6.4 | 16.1 | 0.00 | 0.08 | 0.08 | 70 | 968.0 |
| 20260905193026 | 26 | 266 | 8.0 | 24.1 | 0.00 | 0.08 | 0.08 | 72 | 967.6 |
| 20260905191517 | 26 | 282 | 11.3 | 17.7 | 0.00 | 0.08 | 0.08 | 74 | 967.6 |
| 20260905190016 | 25 | 305 | 6.4 | 17.7 | 0.00 | 0.08 | 0.08 | 77 | 967.5 |
| 20260905184521 | 24 | 302 | 6.4 | 16.1 | 0.03 | 0.08 | 0.08 | 80 | 968.2 |
| 20260905183024 | 23 | 224 | 3.2 | 16.1 | 0.03 | 0.08 | 0.08 | 91 | 968.8 |
| 20260905181515 | 22 | 197 | 1.6 | 12.9 | 0.08 | 0.08 | 0.08 | 91 | 967.5 |
| 20260905180012 | 22 | 84 | 0.0 | 14.5 | 0.08 | 0.08 | 0.08 | 87 | 968.4 |
| 20260905174523 | 22 | 5 | 4.8 | 12.9 | 0.05 | 0.05 | 0.05 | 86 | 969.5 |
| 20260905173009 | 23 | 281 | 3.2 | 14.5 | 0.05 | 0.05 | 0.05 | 80 | 970.1 |
| 20260905171508 | 27 | 32 | 17.7 | 43.5 | 0.00 | 0.00 | 0.00 | 64 | 970.7 |
| 20260905170008 | 30 | 294 | 12.9 | 24.1 | 0.00 | 0.00 | 0.00 | 67 | 970.6 |
| 20260905164506 | 31 | 292 | 8.0 | 14.5 | 0.00 | 0.00 | 0.00 | 67 | 970.4 |
| 20260905163008 | 32 | 288 | 6.4 | 20.9 | 0.00 | 0.00 | 0.00 | 66 | 970.4 |
| 20260905161506 | 32 | 342 | 8.0 | 14.5 | 0.00 | 0.00 | 0.00 | 66 | 970.0 |
| 20260905160008 | 32 | 5 | 6.4 | 19.3 | 0.00 | 0.00 | 0.00 | 65 | 970.0 |
| 20260905154504 | 32 | 335 | 1.6 | 16.1 | 0.00 | 0.00 | 0.00 | 67 | 970.1 |
| 20260905153005 | 31 | 298 | 8.0 | 19.3 | 0.00 | 0.00 | 0.00 | 65 | 970.1 |
| 20260905151503 | 32 | 319 | 8.0 | 16.1 | 0.00 | 0.00 | 0.00 | 67 | 970.0 |
| 20260905144600 | 31 | 298 | 8.0 | 16.1 | 0.00 | 0.00 | 0.00 | 69 | 969.8 |
| 20260905143100 | 31 | 302 | 3.2 | 14.5 | 0.00 | 0.00 | 0.00 | 71 | 969.9 |
| 20260905141612 | 31 | 309 | 3.2 | 12.9 | 0.00 | 0.00 | 0.00 | 72 | 969.9 |
| 20260905134606 | 31 | 234 | 0.0 | 9.7 | 0.00 | 0.00 | 0.00 | 73 | 969.7 |
| 20260905133056 | 30 | 282 | 0.0 | 4.8 | 0.00 | 0.00 | 0.00 | 77 | 969.8 |
| 20260905131554 | 28 | 270 | 0.0 | 6.4 | 0.00 | 0.00 | 0.00 | 81 | 969.8 |
| 20260905130041 | 26 | 233 | 0.0 | 0.0 | 0.00 | 0.00 | 0.00 | 89 | 970.1 |
| 20260905124537 | 25 | 233 | 0.0 | 0.0 | 0.00 | 0.00 | 0.00 | 90 | 970.1 |
| 20260905123032 | 23 | 233 | 0.0 | 1.6 | 0.00 | 0.00 | 0.00 | 93 | 970.2 |
| 20260905121529 | 22 | 233 | 0.0 | 1.6 | 0.00 | 0.00 | 0.00 | 95 | 970.3 |
| 20260905120028 | 21 | 237 | 0.0 | 0.0 | 0.00 | 0.00 | 0.00 | 98 | 970.3 |
| 20260905114538 | 20 | 237 | 0.0 | 0.0 | 0.00 | 0.00 | 0.00 | 100 | 970.1 |
| 20260905113025 | 19 | 237 | 0.0 | 3.2 | 0.00 | 0.00 | 0.00 | 100 | 970.0 |
| 20260905111524 | 18 | 237 | 0.0 | 3.2 | 0.00 | 0.00 | 0.00 | 99 | 969.9 |
| 20260905110024 | 18 | 237 | 0.0 | 1.6 | 0.00 | 0.00 | 0.00 | 99 | 969.9 |
| 20260905104523 | 18 | 237 | 0.0 | 3.2 | 0.00 | 0.00 | 0.00 | 99 | 969.8 |
| 20260905103031 | 18 | 237 | 0.0 | 1.6 | 0.00 | 0.00 | 0.00 | 99 | 969.7 |
| 20260905101522 | 19 | 237 | 0.0 | 0.0 | 0.00 | 0.00 | 0.00 | 99 | 969.9 |
| 20260905100019 | 19 | 237 | 0.0 | 3.2 | 0.00 | 0.00 | 0.00 | 98 | 969.7 |